Hensley, Arkansas
Current Conditions -  °F | °C
As of 7:53 AM on Saturday 22 Nov 2014 (Local Time) from KLIT Reporting Station
Broken Clouds Broken Clouds  
Wind Chill: 52°   Ceiling: 4000
Heat Index: 52°   Visibility: 7mi
Dew Point: 49°   Wind: 0mph
Humidity: 89%   Direction: NA
Pressure: 30.2"   Gusts: NA
Location:  34.51°N, 92.21°W
Report Text: KLIT 221353Z 00000KT 7SM BKN040 BKN065 11/09 A3020 RMK AO2 SLP227 T01110094
Loading
Personal Weather Stations






























Interactive Weather Map New forecast layout! Learn more

10-Day Weather Forecast

Advertisements
Track Severe Weather on mobile